sensor_id;sensor_type;location;lat;lon;timestamp;P1;durP1;ratioP1;P2;durP2;ratioP2
6898;SDS011;3488;42.616;23.350;2024-03-08T00:00:58;21.80;;;8.38;;
6898;SDS011;3488;42.616;23.350;2024-03-08T00:03:24;20.50;;;8.20;;
6898;SDS011;3488;42.616;23.350;2024-03-08T00:05:49;25.02;;;8.50;;
6898;SDS011;3488;42.616;23.350;2024-03-08T00:08:14;24.55;;;9.38;;
6898;SDS011;3488;42.616;23.350;2024-03-08T00:10:40;22.27;;;8.50;;
6898;SDS011;3488;42.616;23.350;2024-03-08T00:13:05;23.08;;;8.57;;
6898;SDS011;3488;42.616;23.350;2024-03-08T00:15:31;23.60;;;9.38;;
6898;SDS011;3488;42.616;23.350;2024-03-08T00:17:57;25.35;;;8.80;;
6898;SDS011;3488;42.616;23.350;2024-03-08T00:20:23;21.33;;;8.40;;
6898;SDS011;3488;42.616;23.350;2024-03-08T00:22:49;25.95;;;10.05;;
6898;SDS011;3488;42.616;23.350;2024-03-08T00:25:14;23.80;;;8.40;;
6898;SDS011;3488;42.616;23.350;2024-03-08T00:27:40;23.35;;;8.93;;
6898;SDS011;3488;42.616;23.350;2024-03-08T00:30:09;25.30;;;9.32;;
6898;SDS011;3488;42.616;23.350;2024-03-08T00:32:35;25.00;;;8.85;;
6898;SDS011;3488;42.616;23.350;2024-03-08T00:35:01;26.05;;;9.63;;
6898;SDS011;3488;42.616;23.350;2024-03-08T00:37:27;22.58;;;8.48;;
6898;SDS011;3488;42.616;23.350;2024-03-08T00:39:52;25.20;;;8.48;;
6898;SDS011;3488;42.616;23.350;2024-03-08T00:42:19;24.15;;;9.02;;
6898;SDS011;3488;42.616;23.350;2024-03-08T00:44:45;23.63;;;8.57;;
6898;SDS011;3488;42.616;23.350;2024-03-08T00:47:11;22.52;;;8.60;;
6898;SDS011;3488;42.616;23.350;2024-03-08T00:49:37;20.95;;;7.85;;
6898;SDS011;3488;42.616;23.350;2024-03-08T00:52:06;19.33;;;7.40;;
6898;SDS011;3488;42.616;23.350;2024-03-08T00:54:32;21.17;;;8.73;;
6898;SDS011;3488;42.616;23.350;2024-03-08T00:56:58;21.20;;;8.10;;
6898;SDS011;3488;42.616;23.350;2024-03-08T00:59:23;22.35;;;8.27;;
6898;SDS011;3488;42.616;23.350;2024-03-08T01:01:49;25.23;;;9.18;;
6898;SDS011;3488;42.616;23.350;2024-03-08T01:04:14;43.50;;;8.70;;
6898;SDS011;3488;42.616;23.350;2024-03-08T01:06:39;76.95;;;8.23;;
6898;SDS011;3488;42.616;23.350;2024-03-08T01:09:05;69.57;;;8.15;;
6898;SDS011;3488;42.616;23.350;2024-03-08T01:11:32;22.08;;;6.70;;
6898;SDS011;3488;42.616;23.350;2024-03-08T01:13:59;31.95;;;7.55;;
6898;SDS011;3488;42.616;23.350;2024-03-08T01:16:24;28.88;;;7.53;;
6898;SDS011;3488;42.616;23.350;2024-03-08T01:18:49;45.00;;;8.27;;
6898;SDS011;3488;42.616;23.350;2024-03-08T01:21:15;28.05;;;7.30;;
6898;SDS011;3488;42.616;23.350;2024-03-08T01:23:41;58.20;;;8.63;;
6898;SDS011;3488;42.616;23.350;2024-03-08T01:26:07;20.45;;;6.90;;
6898;SDS011;3488;42.616;23.350;2024-03-08T01:28:32;26.05;;;7.55;;
6898;SDS011;3488;42.616;23.350;2024-03-08T01:30:59;22.23;;;8.10;;
6898;SDS011;3488;42.616;23.350;2024-03-08T01:33:26;28.65;;;8.48;;
6898;SDS011;3488;42.616;23.350;2024-03-08T01:35:55;65.15;;;8.77;;
6898;SDS011;3488;42.616;23.350;2024-03-08T01:38:22;24.85;;;8.38;;
6898;SDS011;3488;42.616;23.350;2024-03-08T01:40:47;33.67;;;9.07;;
6898;SDS011;3488;42.616;23.350;2024-03-08T01:43:24;24.55;;;7.07;;
6898;SDS011;3488;42.616;23.350;2024-03-08T01:45:55;16.70;;;6.43;;
6898;SDS011;3488;42.616;23.350;2024-03-08T01:48:24;17.80;;;6.55;;
6898;SDS011;3488;42.616;23.350;2024-03-08T01:50:50;15.60;;;5.30;;
6898;SDS011;3488;42.616;23.350;2024-03-08T01:53:17;15.82;;;5.63;;
6898;SDS011;3488;42.616;23.350;2024-03-08T01:55:47;12.13;;;4.93;;
6898;SDS011;3488;42.616;23.350;2024-03-08T01:58:13;12.02;;;4.80;;
6898;SDS011;3488;42.616;23.350;2024-03-08T02:00:43;12.27;;;4.30;;
6898;SDS011;3488;42.616;23.350;2024-03-08T02:03:11;15.18;;;5.63;;
6898;SDS011;3488;42.616;23.350;2024-03-08T02:05:37;13.98;;;5.07;;
6898;SDS011;3488;42.616;23.350;2024-03-08T02:08:05;13.00;;;5.35;;
6898;SDS011;3488;42.616;23.350;2024-03-08T02:10:32;11.25;;;5.22;;
6898;SDS011;3488;42.616;23.350;2024-03-08T02:13:01;10.85;;;4.93;;
6898;SDS011;3488;42.616;23.350;2024-03-08T02:18:33;12.68;;;4.95;;
6898;SDS011;3488;42.616;23.350;2024-03-08T02:20:59;12.60;;;5.65;;
6898;SDS011;3488;42.616;23.350;2024-03-08T02:23:26;16.92;;;6.00;;
6898;SDS011;3488;42.616;23.350;2024-03-08T02:25:52;13.82;;;5.20;;
6898;SDS011;3488;42.616;23.350;2024-03-08T02:28:18;10.38;;;4.18;;
6898;SDS011;3488;42.616;23.350;2024-03-08T02:30:48;14.45;;;5.43;;
6898;SDS011;3488;42.616;23.350;2024-03-08T02:33:15;11.95;;;4.70;;
6898;SDS011;3488;42.616;23.350;2024-03-08T02:35:44;10.77;;;4.85;;
6898;SDS011;3488;42.616;23.350;2024-03-08T02:38:11;10.88;;;5.10;;
6898;SDS011;3488;42.616;23.350;2024-03-08T02:40:37;11.52;;;5.00;;
6898;SDS011;3488;42.616;23.350;2024-03-08T02:43:03;10.90;;;5.13;;
6898;SDS011;3488;42.616;23.350;2024-03-08T02:45:30;11.60;;;5.05;;
6898;SDS011;3488;42.616;23.350;2024-03-08T02:47:55;10.02;;;4.40;;
6898;SDS011;3488;42.616;23.350;2024-03-08T02:50:21;10.18;;;4.43;;
6898;SDS011;3488;42.616;23.350;2024-03-08T02:52:47;9.32;;;5.13;;
6898;SDS011;3488;42.616;23.350;2024-03-08T02:55:13;9.95;;;4.32;;
6898;SDS011;3488;42.616;23.350;2024-03-08T02:57:42;9.15;;;4.15;;
6898;SDS011;3488;42.616;23.350;2024-03-08T03:00:09;8.70;;;3.88;;
6898;SDS011;3488;42.616;23.350;2024-03-08T03:02:35;11.65;;;4.40;;
6898;SDS011;3488;42.616;23.350;2024-03-08T03:05:01;11.07;;;5.60;;
6898;SDS011;3488;42.616;23.350;2024-03-08T03:07:31;9.57;;;4.15;;
6898;SDS011;3488;42.616;23.350;2024-03-08T03:10:00;9.15;;;3.95;;
6898;SDS011;3488;42.616;23.350;2024-03-08T03:12:29;5.18;;;2.70;;
6898;SDS011;3488;42.616;23.350;2024-03-08T03:14:56;5.57;;;2.47;;
6898;SDS011;3488;42.616;23.350;2024-03-08T03:17:25;5.63;;;2.95;;
6898;SDS011;3488;42.616;23.350;2024-03-08T03:19:51;4.13;;;1.85;;
6898;SDS011;3488;42.616;23.350;2024-03-08T03:22:18;4.30;;;1.90;;
6898;SDS011;3488;42.616;23.350;2024-03-08T03:24:47;4.30;;;1.95;;
6898;SDS011;3488;42.616;23.350;2024-03-08T03:27:13;4.40;;;2.15;;
6898;SDS011;3488;42.616;23.350;2024-03-08T03:29:40;6.05;;;2.45;;
6898;SDS011;3488;42.616;23.350;2024-03-08T03:32:13;4.97;;;2.63;;
6898;SDS011;3488;42.616;23.350;2024-03-08T03:34:40;5.53;;;2.40;;
6898;SDS011;3488;42.616;23.350;2024-03-08T03:37:06;4.88;;;2.33;;
6898;SDS011;3488;42.616;23.350;2024-03-08T03:39:33;7.25;;;3.20;;
6898;SDS011;3488;42.616;23.350;2024-03-08T03:42:02;8.45;;;3.38;;
6898;SDS011;3488;42.616;23.350;2024-03-08T03:44:28;5.60;;;2.47;;
6898;SDS011;3488;42.616;23.350;2024-03-08T03:46:54;3.67;;;1.70;;
6898;SDS011;3488;42.616;23.350;2024-03-08T03:49:19;3.45;;;1.40;;
6898;SDS011;3488;42.616;23.350;2024-03-08T03:51:45;2.97;;;1.65;;
6898;SDS011;3488;42.616;23.350;2024-03-08T03:54:12;4.80;;;1.55;;
6898;SDS011;3488;42.616;23.350;2024-03-08T03:56:38;3.80;;;1.70;;
6898;SDS011;3488;42.616;23.350;2024-03-08T03:59:05;4.15;;;1.80;;
6898;SDS011;3488;42.616;23.350;2024-03-08T04:01:31;4.65;;;1.73;;
6898;SDS011;3488;42.616;23.350;2024-03-08T04:03:58;4.13;;;1.80;;
6898;SDS011;3488;42.616;23.350;2024-03-08T04:06:23;3.88;;;2.30;;
6898;SDS011;3488;42.616;23.350;2024-03-08T04:08:49;3.72;;;1.50;;
6898;SDS011;3488;42.616;23.350;2024-03-08T04:11:15;3.60;;;1.70;;
6898;SDS011;3488;42.616;23.350;2024-03-08T04:13:42;3.65;;;1.83;;
6898;SDS011;3488;42.616;23.350;2024-03-08T04:16:08;5.53;;;2.10;;
6898;SDS011;3488;42.616;23.350;2024-03-08T04:18:36;4.60;;;2.28;;
6898;SDS011;3488;42.616;23.350;2024-03-08T04:21:03;5.40;;;2.47;;
6898;SDS011;3488;42.616;23.350;2024-03-08T04:23:34;4.30;;;2.22;;
6898;SDS011;3488;42.616;23.350;2024-03-08T04:26:02;4.47;;;2.25;;
6898;SDS011;3488;42.616;23.350;2024-03-08T04:28:29;4.05;;;2.17;;
6898;SDS011;3488;42.616;23.350;2024-03-08T04:30:55;4.47;;;1.95;;
6898;SDS011;3488;42.616;23.350;2024-03-08T04:33:21;4.57;;;2.35;;
6898;SDS011;3488;42.616;23.350;2024-03-08T04:35:48;5.03;;;2.40;;
6898;SDS011;3488;42.616;23.350;2024-03-08T04:38:14;4.72;;;2.08;;
6898;SDS011;3488;42.616;23.350;2024-03-08T04:40:40;4.88;;;2.17;;
6898;SDS011;3488;42.616;23.350;2024-03-08T04:43:06;5.00;;;2.22;;
6898;SDS011;3488;42.616;23.350;2024-03-08T04:45:33;3.97;;;1.70;;
6898;SDS011;3488;42.616;23.350;2024-03-08T04:47:59;4.32;;;2.35;;
6898;SDS011;3488;42.616;23.350;2024-03-08T04:50:24;3.50;;;1.50;;
6898;SDS011;3488;42.616;23.350;2024-03-08T04:52:50;3.58;;;1.58;;
6898;SDS011;3488;42.616;23.350;2024-03-08T04:55:15;3.08;;;1.52;;
6898;SDS011;3488;42.616;23.350;2024-03-08T04:57:40;3.40;;;1.35;;
6898;SDS011;3488;42.616;23.350;2024-03-08T05:00:09;4.95;;;1.90;;
6898;SDS011;3488;42.616;23.350;2024-03-08T05:02:36;6.25;;;2.25;;
6898;SDS011;3488;42.616;23.350;2024-03-08T05:05:04;3.45;;;1.50;;
6898;SDS011;3488;42.616;23.350;2024-03-08T05:07:31;2.67;;;1.08;;
6898;SDS011;3488;42.616;23.350;2024-03-08T05:09:57;2.20;;;1.10;;
6898;SDS011;3488;42.616;23.350;2024-03-08T05:12:23;3.58;;;1.70;;
6898;SDS011;3488;42.616;23.350;2024-03-08T05:14:49;4.32;;;1.52;;
6898;SDS011;3488;42.616;23.350;2024-03-08T05:17:15;3.75;;;1.50;;
6898;SDS011;3488;42.616;23.350;2024-03-08T05:19:42;4.03;;;1.40;;
6898;SDS011;3488;42.616;23.350;2024-03-08T05:22:07;3.00;;;1.30;;
6898;SDS011;3488;42.616;23.350;2024-03-08T05:24:33;3.17;;;1.05;;
6898;SDS011;3488;42.616;23.350;2024-03-08T05:26:59;3.60;;;1.02;;
6898;SDS011;3488;42.616;23.350;2024-03-08T05:29:25;2.55;;;1.13;;
6898;SDS011;3488;42.616;23.350;2024-03-08T05:31:51;3.00;;;1.30;;
6898;SDS011;3488;42.616;23.350;2024-03-08T05:34:17;2.30;;;0.80;;
6898;SDS011;3488;42.616;23.350;2024-03-08T05:36:44;2.25;;;1.00;;
6898;SDS011;3488;42.616;23.350;2024-03-08T05:39:14;2.30;;;1.15;;
6898;SDS011;3488;42.616;23.350;2024-03-08T05:41:40;2.85;;;1.67;;
6898;SDS011;3488;42.616;23.350;2024-03-08T05:44:09;2.35;;;0.93;;
6898;SDS011;3488;42.616;23.350;2024-03-08T05:46:36;2.78;;;1.17;;
6898;SDS011;3488;42.616;23.350;2024-03-08T05:49:02;3.58;;;1.38;;
6898;SDS011;3488;42.616;23.350;2024-03-08T05:51:35;3.03;;;1.20;;
6898;SDS011;3488;42.616;23.350;2024-03-08T05:54:02;3.47;;;1.27;;
6898;SDS011;3488;42.616;23.350;2024-03-08T05:56:30;2.63;;;1.30;;
6898;SDS011;3488;42.616;23.350;2024-03-08T05:58:58;4.57;;;1.83;;
6898;SDS011;3488;42.616;23.350;2024-03-08T06:01:24;3.60;;;1.75;;
6898;SDS011;3488;42.616;23.350;2024-03-08T06:03:52;4.88;;;1.70;;
6898;SDS011;3488;42.616;23.350;2024-03-08T06:06:20;4.32;;;1.98;;
6898;SDS011;3488;42.616;23.350;2024-03-08T06:08:46;6.90;;;2.63;;
6898;SDS011;3488;42.616;23.350;2024-03-08T06:11:14;7.07;;;3.38;;
6898;SDS011;3488;42.616;23.350;2024-03-08T06:13:40;7.38;;;3.53;;
6898;SDS011;3488;42.616;23.350;2024-03-08T06:16:05;7.68;;;3.65;;
6898;SDS011;3488;42.616;23.350;2024-03-08T06:18:33;9.82;;;4.18;;
6898;SDS011;3488;42.616;23.350;2024-03-08T06:21:01;9.05;;;3.90;;
6898;SDS011;3488;42.616;23.350;2024-03-08T06:23:27;11.77;;;4.35;;
6898;SDS011;3488;42.616;23.350;2024-03-08T06:25:53;9.02;;;4.10;;
6898;SDS011;3488;42.616;23.350;2024-03-08T06:28:19;10.65;;;3.78;;
6898;SDS011;3488;42.616;23.350;2024-03-08T06:30:45;8.00;;;3.30;;
6898;SDS011;3488;42.616;23.350;2024-03-08T06:33:10;9.60;;;4.35;;
6898;SDS011;3488;42.616;23.350;2024-03-08T06:35:36;10.10;;;4.60;;
6898;SDS011;3488;42.616;23.350;2024-03-08T06:38:03;11.05;;;4.57;;
6898;SDS011;3488;42.616;23.350;2024-03-08T06:40:29;9.70;;;4.90;;
6898;SDS011;3488;42.616;23.350;2024-03-08T06:42:55;10.05;;;4.45;;
6898;SDS011;3488;42.616;23.350;2024-03-08T06:45:20;11.88;;;5.95;;
6898;SDS011;3488;42.616;23.350;2024-03-08T06:47:47;9.65;;;3.92;;
6898;SDS011;3488;42.616;23.350;2024-03-08T06:50:13;8.90;;;4.15;;
6898;SDS011;3488;42.616;23.350;2024-03-08T06:52:40;8.70;;;4.28;;
6898;SDS011;3488;42.616;23.350;2024-03-08T06:55:08;12.77;;;5.35;;
6898;SDS011;3488;42.616;23.350;2024-03-08T06:57:40;10.77;;;4.80;;
6898;SDS011;3488;42.616;23.350;2024-03-08T07:00:06;9.73;;;4.72;;
6898;SDS011;3488;42.616;23.350;2024-03-08T07:02:35;11.05;;;4.78;;
6898;SDS011;3488;42.616;23.350;2024-03-08T07:05:01;9.25;;;4.80;;
6898;SDS011;3488;42.616;23.350;2024-03-08T07:07:27;8.93;;;4.47;;
6898;SDS011;3488;42.616;23.350;2024-03-08T07:09:52;8.48;;;4.47;;
6898;SDS011;3488;42.616;23.350;2024-03-08T07:12:18;8.88;;;4.43;;
6898;SDS011;3488;42.616;23.350;2024-03-08T07:14:45;11.18;;;5.10;;
6898;SDS011;3488;42.616;23.350;2024-03-08T07:17:12;11.18;;;5.22;;
6898;SDS011;3488;42.616;23.350;2024-03-08T07:19:38;11.05;;;5.63;;
6898;SDS011;3488;42.616;23.350;2024-03-08T07:22:04;9.10;;;4.75;;
6898;SDS011;3488;42.616;23.350;2024-03-08T07:24:30;9.95;;;4.25;;
6898;SDS011;3488;42.616;23.350;2024-03-08T07:27:25;9.55;;;4.65;;
6898;SDS011;3488;42.616;23.350;2024-03-08T07:29:51;10.60;;;4.90;;
6898;SDS011;3488;42.616;23.350;2024-03-08T07:32:17;10.93;;;5.07;;
6898;SDS011;3488;42.616;23.350;2024-03-08T07:34:50;10.45;;;4.57;;
6898;SDS011;3488;42.616;23.350;2024-03-08T07:37:16;10.55;;;4.53;;
6898;SDS011;3488;42.616;23.350;2024-03-08T07:39:43;9.63;;;4.07;;
6898;SDS011;3488;42.616;23.350;2024-03-08T07:42:08;11.02;;;4.90;;
6898;SDS011;3488;42.616;23.350;2024-03-08T07:44:35;9.43;;;4.60;;
6898;SDS011;3488;42.616;23.350;2024-03-08T07:47:01;8.90;;;4.60;;
6898;SDS011;3488;42.616;23.350;2024-03-08T07:49:26;12.52;;;5.25;;
6898;SDS011;3488;42.616;23.350;2024-03-08T07:51:52;9.48;;;4.43;;
6898;SDS011;3488;42.616;23.350;2024-03-08T07:54:17;9.27;;;4.50;;
6898;SDS011;3488;42.616;23.350;2024-03-08T07:56:43;9.40;;;4.35;;
6898;SDS011;3488;42.616;23.350;2024-03-08T07:59:08;10.35;;;4.93;;
6898;SDS011;3488;42.616;23.350;2024-03-08T08:01:36;9.60;;;4.70;;
6898;SDS011;3488;42.616;23.350;2024-03-08T08:04:02;10.93;;;4.53;;
6898;SDS011;3488;42.616;23.350;2024-03-08T08:06:28;8.30;;;4.72;;
6898;SDS011;3488;42.616;23.350;2024-03-08T08:08:56;9.65;;;4.13;;
6898;SDS011;3488;42.616;23.350;2024-03-08T08:11:22;7.60;;;3.63;;
6898;SDS011;3488;42.616;23.350;2024-03-08T08:13:48;6.75;;;3.15;;
6898;SDS011;3488;42.616;23.350;2024-03-08T08:16:13;6.82;;;3.72;;
6898;SDS011;3488;42.616;23.350;2024-03-08T08:18:39;7.55;;;3.83;;
6898;SDS011;3488;42.616;23.350;2024-03-08T08:21:05;6.47;;;3.35;;
6898;SDS011;3488;42.616;23.350;2024-03-08T08:23:31;6.53;;;3.22;;
6898;SDS011;3488;42.616;23.350;2024-03-08T08:25:59;7.97;;;3.60;;
6898;SDS011;3488;42.616;23.350;2024-03-08T08:28:26;6.85;;;3.83;;
6898;SDS011;3488;42.616;23.350;2024-03-08T08:30:52;7.22;;;3.10;;
6898;SDS011;3488;42.616;23.350;2024-03-08T08:33:17;7.95;;;3.53;;
6898;SDS011;3488;42.616;23.350;2024-03-08T08:35:43;6.18;;;3.10;;
6898;SDS011;3488;42.616;23.350;2024-03-08T08:38:09;8.55;;;3.92;;
6898;SDS011;3488;42.616;23.350;2024-03-08T08:40:34;8.63;;;4.28;;
6898;SDS011;3488;42.616;23.350;2024-03-08T08:43:02;7.25;;;3.88;;
6898;SDS011;3488;42.616;23.350;2024-03-08T08:45:31;8.55;;;4.72;;
6898;SDS011;3488;42.616;23.350;2024-03-08T08:47:56;8.30;;;4.15;;
6898;SDS011;3488;42.616;23.350;2024-03-08T08:50:24;8.90;;;4.63;;
6898;SDS011;3488;42.616;23.350;2024-03-08T08:52:51;7.47;;;3.47;;
6898;SDS011;3488;42.616;23.350;2024-03-08T08:55:17;9.25;;;4.25;;
6898;SDS011;3488;42.616;23.350;2024-03-08T08:57:46;11.85;;;5.05;;
6898;SDS011;3488;42.616;23.350;2024-03-08T09:00:13;9.00;;;4.53;;
6898;SDS011;3488;42.616;23.350;2024-03-08T09:02:41;9.15;;;4.47;;
6898;SDS011;3488;42.616;23.350;2024-03-08T09:05:07;9.50;;;4.65;;
6898;SDS011;3488;42.616;23.350;2024-03-08T09:07:33;8.63;;;4.50;;
6898;SDS011;3488;42.616;23.350;2024-03-08T09:09:59;9.95;;;4.60;;
6898;SDS011;3488;42.616;23.350;2024-03-08T09:12:25;9.18;;;5.00;;
6898;SDS011;3488;42.616;23.350;2024-03-08T09:14:51;7.63;;;4.35;;
6898;SDS011;3488;42.616;23.350;2024-03-08T09:17:17;9.77;;;4.38;;
6898;SDS011;3488;42.616;23.350;2024-03-08T09:19:46;7.97;;;4.47;;
6898;SDS011;3488;42.616;23.350;2024-03-08T09:22:13;9.25;;;4.28;;
6898;SDS011;3488;42.616;23.350;2024-03-08T09:24:38;8.93;;;4.50;;
6898;SDS011;3488;42.616;23.350;2024-03-08T09:27:04;5.68;;;3.17;;
6898;SDS011;3488;42.616;23.350;2024-03-08T09:29:30;9.43;;;4.13;;
6898;SDS011;3488;42.616;23.350;2024-03-08T09:31:55;8.50;;;4.30;;
6898;SDS011;3488;42.616;23.350;2024-03-08T09:34:21;9.48;;;3.85;;
6898;SDS011;3488;42.616;23.350;2024-03-08T09:36:47;7.18;;;3.58;;
6898;SDS011;3488;42.616;23.350;2024-03-08T09:39:12;6.75;;;3.53;;
6898;SDS011;3488;42.616;23.350;2024-03-08T09:41:44;7.28;;;3.40;;
6898;SDS011;3488;42.616;23.350;2024-03-08T09:44:13;7.35;;;4.10;;
6898;SDS011;3488;42.616;23.350;2024-03-08T09:46:39;6.95;;;3.58;;
6898;SDS011;3488;42.616;23.350;2024-03-08T09:49:05;7.22;;;3.05;;
6898;SDS011;3488;42.616;23.350;2024-03-08T09:51:33;5.82;;;2.88;;
6898;SDS011;3488;42.616;23.350;2024-03-08T09:54:03;6.45;;;3.35;;
6898;SDS011;3488;42.616;23.350;2024-03-08T09:56:30;5.65;;;2.75;;
6898;SDS011;3488;42.616;23.350;2024-03-08T09:59:01;7.03;;;3.53;;
6898;SDS011;3488;42.616;23.350;2024-03-08T10:01:54;7.50;;;3.15;;
6898;SDS011;3488;42.616;23.350;2024-03-08T10:04:22;6.72;;;2.88;;
6898;SDS011;3488;42.616;23.350;2024-03-08T10:06:47;5.95;;;2.60;;
6898;SDS011;3488;42.616;23.350;2024-03-08T10:09:14;4.75;;;2.53;;
6898;SDS011;3488;42.616;23.350;2024-03-08T10:11:41;5.50;;;2.92;;
6898;SDS011;3488;42.616;23.350;2024-03-08T10:14:07;4.88;;;2.45;;
6898;SDS011;3488;42.616;23.350;2024-03-08T10:16:34;3.88;;;2.38;;
6898;SDS011;3488;42.616;23.350;2024-03-08T10:19:00;4.35;;;2.25;;
6898;SDS011;3488;42.616;23.350;2024-03-08T10:21:25;8.98;;;2.95;;
6898;SDS011;3488;42.616;23.350;2024-03-08T10:23:52;6.00;;;2.38;;
6898;SDS011;3488;42.616;23.350;2024-03-08T10:26:17;6.13;;;2.88;;
6898;SDS011;3488;42.616;23.350;2024-03-08T10:28:46;4.97;;;2.55;;
6898;SDS011;3488;42.616;23.350;2024-03-08T10:31:13;4.22;;;2.20;;
6898;SDS011;3488;42.616;23.350;2024-03-08T10:33:40;4.53;;;2.30;;
6898;SDS011;3488;42.616;23.350;2024-03-08T10:36:09;6.28;;;2.97;;
6898;SDS011;3488;42.616;23.350;2024-03-08T10:38:38;5.60;;;2.67;;
6898;SDS011;3488;42.616;23.350;2024-03-08T10:41:06;3.92;;;1.98;;
6898;SDS011;3488;42.616;23.350;2024-03-08T10:43:42;4.85;;;2.47;;
6898;SDS011;3488;42.616;23.350;2024-03-08T10:48:55;4.55;;;2.13;;
6898;SDS011;3488;42.616;23.350;2024-03-08T10:51:28;5.05;;;2.47;;
6898;SDS011;3488;42.616;23.350;2024-03-08T10:53:56;5.10;;;2.40;;
6898;SDS011;3488;42.616;23.350;2024-03-08T10:56:22;6.03;;;2.80;;
6898;SDS011;3488;42.616;23.350;2024-03-08T10:58:48;5.20;;;2.00;;
6898;SDS011;3488;42.616;23.350;2024-03-08T11:01:15;5.45;;;2.13;;
6898;SDS011;3488;42.616;23.350;2024-03-08T11:08:42;6.60;;;1.85;;
6898;SDS011;3488;42.616;23.350;2024-03-08T11:13:55;4.47;;;2.20;;
6898;SDS011;3488;42.616;23.350;2024-03-08T11:18:55;4.97;;;2.50;;
6898;SDS011;3488;42.616;23.350;2024-03-08T11:21:30;4.85;;;2.40;;
6898;SDS011;3488;42.616;23.350;2024-03-08T11:24:02;4.43;;;2.38;;
6898;SDS011;3488;42.616;23.350;2024-03-08T11:26:32;6.05;;;2.63;;
6898;SDS011;3488;42.616;23.350;2024-03-08T11:32:14;4.07;;;2.10;;
6898;SDS011;3488;42.616;23.350;2024-03-08T11:34:42;5.32;;;2.30;;
6898;SDS011;3488;42.616;23.350;2024-03-08T11:37:19;4.20;;;2.28;;
6898;SDS011;3488;42.616;23.350;2024-03-08T11:42:16;4.45;;;2.20;;
6898;SDS011;3488;42.616;23.350;2024-03-08T11:44:43;4.45;;;2.00;;
6898;SDS011;3488;42.616;23.350;2024-03-08T11:47:10;3.75;;;1.52;;
6898;SDS011;3488;42.616;23.350;2024-03-08T11:49:36;2.22;;;1.30;;
6898;SDS011;3488;42.616;23.350;2024-03-08T11:52:02;3.10;;;1.48;;
6898;SDS011;3488;42.616;23.350;2024-03-08T11:54:29;3.88;;;2.00;;
6898;SDS011;3488;42.616;23.350;2024-03-08T11:56:55;3.88;;;1.98;;
6898;SDS011;3488;42.616;23.350;2024-03-08T11:59:26;3.40;;;1.55;;
6898;SDS011;3488;42.616;23.350;2024-03-08T12:02:03;3.65;;;1.35;;
6898;SDS011;3488;42.616;23.350;2024-03-08T12:04:30;3.17;;;1.45;;
6898;SDS011;3488;42.616;23.350;2024-03-08T12:06:59;4.50;;;1.95;;
6898;SDS011;3488;42.616;23.350;2024-03-08T12:09:30;4.03;;;1.73;;
6898;SDS011;3488;42.616;23.350;2024-03-08T12:11:58;4.00;;;1.45;;
6898;SDS011;3488;42.616;23.350;2024-03-08T12:14:24;3.00;;;1.50;;
6898;SDS011;3488;42.616;23.350;2024-03-08T12:16:50;5.80;;;1.88;;
6898;SDS011;3488;42.616;23.350;2024-03-08T12:19:17;4.25;;;1.70;;
6898;SDS011;3488;42.616;23.350;2024-03-08T12:21:43;4.97;;;1.98;;
6898;SDS011;3488;42.616;23.350;2024-03-08T12:24:14;3.92;;;2.03;;
6898;SDS011;3488;42.616;23.350;2024-03-08T12:26:41;4.78;;;2.05;;
6898;SDS011;3488;42.616;23.350;2024-03-08T12:29:24;5.75;;;2.00;;
6898;SDS011;3488;42.616;23.350;2024-03-08T12:31:52;3.95;;;2.00;;
6898;SDS011;3488;42.616;23.350;2024-03-08T12:34:23;3.55;;;1.73;;
6898;SDS011;3488;42.616;23.350;2024-03-08T12:36:50;3.08;;;1.80;;
6898;SDS011;3488;42.616;23.350;2024-03-08T12:39:20;4.05;;;1.75;;
6898;SDS011;3488;42.616;23.350;2024-03-08T12:41:53;3.22;;;1.55;;
6898;SDS011;3488;42.616;23.350;2024-03-08T12:44:19;5.85;;;2.45;;
6898;SDS011;3488;42.616;23.350;2024-03-08T12:46:50;4.15;;;1.70;;
6898;SDS011;3488;42.616;23.350;2024-03-08T12:49:17;4.93;;;1.65;;
6898;SDS011;3488;42.616;23.350;2024-03-08T12:51:43;3.15;;;1.67;;
6898;SDS011;3488;42.616;23.350;2024-03-08T12:54:09;3.70;;;1.70;;
6898;SDS011;3488;42.616;23.350;2024-03-08T12:56:35;3.17;;;1.45;;
6898;SDS011;3488;42.616;23.350;2024-03-08T12:59:02;3.50;;;1.65;;
6898;SDS011;3488;42.616;23.350;2024-03-08T13:01:29;2.88;;;1.50;;
6898;SDS011;3488;42.616;23.350;2024-03-08T13:03:59;3.60;;;1.52;;
6898;SDS011;3488;42.616;23.350;2024-03-08T13:06:28;3.10;;;1.55;;
6898;SDS011;3488;42.616;23.350;2024-03-08T13:08:56;8.10;;;1.58;;
6898;SDS011;3488;42.616;23.350;2024-03-08T13:11:23;3.47;;;1.80;;
6898;SDS011;3488;42.616;23.350;2024-03-08T13:13:49;2.95;;;1.55;;
6898;SDS011;3488;42.616;23.350;2024-03-08T13:16:20;3.10;;;1.50;;
6898;SDS011;3488;42.616;23.350;2024-03-08T13:18:46;3.85;;;1.60;;
6898;SDS011;3488;42.616;23.350;2024-03-08T13:21:14;3.47;;;1.67;;
6898;SDS011;3488;42.616;23.350;2024-03-08T13:23:43;3.97;;;1.50;;
6898;SDS011;3488;42.616;23.350;2024-03-08T13:26:14;5.95;;;1.60;;
6898;SDS011;3488;42.616;23.350;2024-03-08T13:28:44;3.90;;;1.45;;
6898;SDS011;3488;42.616;23.350;2024-03-08T13:31:10;3.55;;;1.92;;
6898;SDS011;3488;42.616;23.350;2024-03-08T13:33:36;2.90;;;1.33;;
6898;SDS011;3488;42.616;23.350;2024-03-08T13:36:04;2.78;;;1.20;;
6898;SDS011;3488;42.616;23.350;2024-03-08T13:38:42;2.67;;;1.20;;
6898;SDS011;3488;42.616;23.350;2024-03-08T13:41:10;3.60;;;1.50;;
6898;SDS011;3488;42.616;23.350;2024-03-08T13:43:37;2.88;;;1.48;;
6898;SDS011;3488;42.616;23.350;2024-03-08T13:46:03;2.63;;;1.60;;
6898;SDS011;3488;42.616;23.350;2024-03-08T13:48:29;3.85;;;1.65;;
6898;SDS011;3488;42.616;23.350;2024-03-08T13:50:56;3.50;;;1.80;;
6898;SDS011;3488;42.616;23.350;2024-03-08T13:53:22;2.88;;;1.55;;
6898;SDS011;3488;42.616;23.350;2024-03-08T13:55:49;4.55;;;1.50;;
6898;SDS011;3488;42.616;23.350;2024-03-08T13:58:15;3.25;;;1.90;;
6898;SDS011;3488;42.616;23.350;2024-03-08T14:00:40;3.47;;;2.10;;
6898;SDS011;3488;42.616;23.350;2024-03-08T14:03:08;2.88;;;1.77;;
6898;SDS011;3488;42.616;23.350;2024-03-08T14:05:37;15.32;;;7.97;;
6898;SDS011;3488;42.616;23.350;2024-03-08T14:08:04;9.57;;;5.40;;
6898;SDS011;3488;42.616;23.350;2024-03-08T14:10:33;5.85;;;2.88;;
6898;SDS011;3488;42.616;23.350;2024-03-08T14:12:59;3.95;;;1.50;;
6898;SDS011;3488;42.616;23.350;2024-03-08T14:15:25;3.17;;;1.48;;
6898;SDS011;3488;42.616;23.350;2024-03-08T14:17:52;3.28;;;1.60;;
6898;SDS011;3488;42.616;23.350;2024-03-08T14:20:19;2.95;;;1.42;;
6898;SDS011;3488;42.616;23.350;2024-03-08T14:22:44;3.72;;;1.65;;
6898;SDS011;3488;42.616;23.350;2024-03-08T14:25:11;2.72;;;1.27;;
6898;SDS011;3488;42.616;23.350;2024-03-08T14:27:43;3.42;;;1.55;;
6898;SDS011;3488;42.616;23.350;2024-03-08T14:30:09;4.07;;;1.63;;
6898;SDS011;3488;42.616;23.350;2024-03-08T14:32:36;3.17;;;1.70;;
6898;SDS011;3488;42.616;23.350;2024-03-08T14:35:03;3.10;;;1.23;;
6898;SDS011;3488;42.616;23.350;2024-03-08T14:37:30;2.42;;;1.10;;
6898;SDS011;3488;42.616;23.350;2024-03-08T14:39:55;3.55;;;1.63;;
6898;SDS011;3488;42.616;23.350;2024-03-08T14:42:21;3.42;;;1.40;;
6898;SDS011;3488;42.616;23.350;2024-03-08T14:44:47;2.63;;;1.40;;
6898;SDS011;3488;42.616;23.350;2024-03-08T14:47:17;3.47;;;1.42;;
6898;SDS011;3488;42.616;23.350;2024-03-08T14:49:43;4.15;;;1.75;;
6898;SDS011;3488;42.616;23.350;2024-03-08T14:52:09;5.75;;;1.73;;
6898;SDS011;3488;42.616;23.350;2024-03-08T14:54:52;2.78;;;1.40;;
6898;SDS011;3488;42.616;23.350;2024-03-08T14:57:19;3.70;;;1.60;;
6898;SDS011;3488;42.616;23.350;2024-03-08T14:59:45;5.28;;;1.58;;
6898;SDS011;3488;42.616;23.350;2024-03-08T15:02:11;5.50;;;2.05;;
6898;SDS011;3488;42.616;23.350;2024-03-08T15:04:36;4.10;;;1.58;;
6898;SDS011;3488;42.616;23.350;2024-03-08T15:07:02;3.88;;;1.70;;
6898;SDS011;3488;42.616;23.350;2024-03-08T15:09:30;5.68;;;2.00;;
6898;SDS011;3488;42.616;23.350;2024-03-08T15:12:06;4.43;;;2.00;;
6898;SDS011;3488;42.616;23.350;2024-03-08T15:14:32;4.05;;;1.70;;
6898;SDS011;3488;42.616;23.350;2024-03-08T15:16:58;4.07;;;1.80;;
6898;SDS011;3488;42.616;23.350;2024-03-08T15:19:23;3.88;;;1.88;;